Pride Of Kent — MQCJ2 — position and weather

sailwx.info

Track history (hours):
 
Tides and Currents Weather Stations Pressure Air Temp Water Temp Dewpoint Dewpoint Depression Visibility Wind Speed Wind Dir Waves Ship Positions

Pride Of Kent

Operator: P & O Ferries

Last reported at 2014-Oct-25 21:33 UTC. Time now 2014-Oct-25 22:13 UTC.
Position N 50°58' E 001°49'.

Length 180 m; draft 6 m.

Type: Passenger vessel. MMSI: 232009000.

Date/timePositionNaut miles runAvg speedWind from/ knotsBaromVisibWave heightAir tempDewpointWater temp
2014-Oct-25 21:33N 50°58' E 001°49'1 1.0
2014-Oct-25 20:34N 50°58' E 001°51'1616.3
2014-Oct-25 19:33N 51°03' E 001°26'6 5.7
2014-Oct-25 18:33N 51°07' E 001°20'1616.0
2014-Oct-25 17:33N 50°59' E 001°42'6 6.3
2014-Oct-25 16:33N 50°58' E 001°52'10 9.5
2014-Oct-25 15:33N 50°60' E 001°37'13 8.8
2014-Oct-25 14:05N 51°07' E 001°20'612.2
2014-Oct-25 13:34N 51°05' E 001°30'1515.3
2014-Oct-25 12:33N 50°58' E 001°51'1 0.8
2014-Oct-25 11:33N 50°59' E 001°50'1413.8
2014-Oct-25 10:33N 51°03' E 001°30'7 5.7
2014-Oct-25 09:18N 51°07' E 001°20'1215.8
2014-Oct-25 08:34N 51°02' E 001°36'1010.1
2014-Oct-25 07:33N 50°58' E 001°51'5 4.7
2014-Oct-25 06:33N 50°58' E 001°44'18 8.7
2014-Oct-25 04:31N 51°07' E 001°20'6 6.0
2014-Oct-25 03:33N 51°06' E 001°29'1515.0
2014-Oct-25 02:33N 50°58' E 001°50'1 0.8
2014-Oct-25 01:33N 50°58' E 001°51'1111.5
2014-Oct-25 00:33N 51°00' E 001°33'11 8.5
2014-Oct-24 23:16N 51°07' E 001°20'1014.3
2014-Oct-24 22:33N 51°05' E 001°36'1212.2
2014-Oct-24 21:33N 50°58' E 001°51'7 7.3
2014-Oct-24 20:34N 50°58' E 001°40'14 6.9
2014-Oct-24 18:33N 51°07' E 001°23'1918.6
2014-Oct-24 17:33N 50°58' E 001°50'1 1.2
2014-Oct-24 16:33N 50°58' E 001°51'1616.4
2014-Oct-24 15:34N 51°05' E 001°27'5 4.8
2014-Oct-24 14:26N 51°07' E 001°20'1112.3
2014-Oct-24 13:33N 51°03' E 001°36'1111.3
2014-Oct-24 12:33N 50°58' E 001°52'0 0.3
2014-Oct-24 11:33N 50°58' E 001°51'1717.3
2014-Oct-24 10:33N 51°05' E 001°26'4 3.8
2014-Oct-24 09:26N 51°07' E 001°20'1415.8
2014-Oct-24 08:33N 51°01' E 001°39'8 7.7
2014-Oct-24 07:33N 50°58' E 001°51'1010.2
2014-Oct-24 06:33N 51°00' E 001°35'1212.1
2014-Oct-24 05:33N 51°07' E 001°20'4 3.8
2014-Oct-24 04:34N 51°07' E 001°26'1717.5
2014-Oct-24 03:33N 50°58' E 001°50'1 0.6
2014-Oct-24 02:33N 50°58' E 001°51'4 4.3
2014-Oct-24 01:34N 51°02' E 001°54'1716.7
2014-Oct-24 00:34N 51°04' E 002°20'1 1.5
2014-Oct-23 23:33N 51°03' E 002°22'0 0.1
2014-Oct-23 22:33N 51°03' E 002°22'0 0.0
2014-Oct-23 21:34N 51°03' E 002°22'0 0.0
2014-Oct-23 20:33N 51°03' E 002°22'0 0.0
2014-Oct-23 19:33N 51°03' E 002°22'0 0.0
2014-Oct-23 18:34N 51°03' E 002°22'0 0.0
2014-Oct-23 17:33N 51°03' E 002°22'0 0.0
2014-Oct-23 16:34N 51°03' E 002°22'0 0.0
2014-Oct-23 15:34N 51°03' E 002°22'0 0.0
2014-Oct-23 14:33N 51°03' E 002°22'0 0.0
2014-Oct-23 13:34N 51°03' E 002°22'0 0.0
2014-Oct-23 12:34N 51°03' E 002°22'0 0.0
2014-Oct-23 11:32N 51°03' E 002°22'0 0.0
2014-Oct-23 10:34N 51°03' E 002°22'0 0.0
2014-Oct-23 09:34N 51°03' E 002°22'0 0.0
2014-Oct-23 08:33N 51°03' E 002°22'0 0.0
2014-Oct-23 07:33N 51°03' E 002°22'0 0.0
2014-Oct-23 06:34N 51°03' E 002°22'0 0.0
2014-Oct-23 05:34N 51°03' E 002°22'0 0.0
2014-Oct-23 04:34N 51°03' E 002°22'0 0.0
2014-Oct-23 03:33N 51°03' E 002°22'0 0.0
2014-Oct-23 02:33N 51°03' E 002°22'0 0.0
2014-Oct-23 01:34N 51°03' E 002°22'0 0.0
2014-Oct-23 00:34N 51°03' E 002°22'0 0.0
2014-Oct-22 23:33N 51°03' E 002°22'0 0.0
2014-Oct-22 22:34N 51°03' E 002°22'0 0.0
2014-Oct-22 21:34N 51°03' E 002°22'0 0.0
2014-Oct-22 20:33N 51°03' E 002°22'0 0.0
2014-Oct-22 19:34N 51°03' E 002°22'0 0.0
2014-Oct-22 18:33N 51°03' E 002°22'0 0.0
2014-Oct-22 17:34N 51°03' E 002°22'0 0.0
2014-Oct-22 16:34N 51°03' E 002°22'0 0.0
2014-Oct-22 15:33N 51°03' E 002°22'0 0.0
2014-Oct-22 14:34N 51°03' E 002°22'0 0.0
2014-Oct-22 13:34N 51°03' E 002°22'0 0.0
2014-Oct-22 12:33N 51°03' E 002°22'0 0.0
2014-Oct-22 11:34N 51°03' E 002°22'0 0.0
2014-Oct-22 10:34N 51°03' E 002°22'0 0.0
2014-Oct-22 09:33N 51°03' E 002°22'0 0.0
2014-Oct-22 08:34N 51°03' E 002°22'0 0.0
2014-Oct-22 07:34N 51°03' E 002°22'0 0.0
2014-Oct-22 06:34N 51°03' E 002°22'0 0.1
2014-Oct-22 05:33N 51°03' E 002°22'0 0.1
2014-Oct-22 04:33N 51°03' E 002°22'0 0.0
2014-Oct-22 03:34N 51°03' E 002°22'0 0.0
2014-Oct-22 02:33N 51°03' E 002°22'0 0.0
2014-Oct-22 01:33N 51°03' E 002°22'0 0.0
2014-Oct-22 00:33N 51°03' E 002°22'0 0.0
2014-Oct-21 23:34N 51°03' E 002°22'0 0.0
2014-Oct-21 22:33N 51°03' E 002°22'0 0.0
2014-Oct-21 21:33N 51°03' E 002°22'0 0.0
2014-Oct-21 20:33N 51°03' E 002°22'0 0.0
2014-Oct-21 19:33N 51°03' E 002°22'0 0.0
2014-Oct-21 18:34N 51°03' E 002°22'0 0.0
2014-Oct-21 17:33N 51°03' E 002°22'0 0.0
2014-Oct-21 16:34N 51°03' E 002°22'1 0.8
2014-Oct-21 15:34N 51°03' E 002°21'1110.8
2014-Oct-21 14:34N 51°03' E 002°04'1312.7
2014-Oct-21 13:33N 50°58' E 001°45'4 4.1
2014-Oct-21 12:34N 50°58' E 001°51'6 5.6
2014-Oct-21 11:33N 50°59' E 001°42'1716.6
2014-Oct-21 10:33N 51°07' E 001°20'1 0.8
2014-Oct-21 09:33N 51°07' E 001°21'1110.7
2014-Oct-21 08:34N 51°03' E 001°37'1010.5
2014-Oct-21 07:33N 50°58' E 001°52'3 3.2
2014-Oct-21 06:33N 50°58' E 001°47'1818.2
2014-Oct-21 05:33N 51°07' E 001°21'1 1.0
2014-Oct-21 04:33N 51°07' E 001°20'9 8.6
2014-Oct-21 03:33N 51°04' E 001°33'1313.0
2014-Oct-21 02:33N 50°58' E 001°51'0 0.0
2014-Oct-21 01:33N 50°58' E 001°51'1616.4
2014-Oct-21 00:33N 51°04' E 001°27'5 5.2
2014-Oct-20 23:33N 51°07' E 001°20'1111.4
2014-Oct-20 22:33N 51°03' E 001°37'1010.5
2014-Oct-20 21:33N 50°58' E 001°51'7 7.0
2014-Oct-20 20:33N 50°59' E 001°40'1515.4
2014-Oct-20 19:33N 51°07' E 001°20'0 0.5
2014-Oct-20 18:33N 51°07' E 001°21'1717.6
2014-Oct-20 17:33N 50°58' E 001°45'4 4.0
2014-Oct-20 16:33N 50°58' E 001°51'1211.9
2014-Oct-20 15:33N 51°01' E 001°33'1010.1
2014-Oct-20 14:33N 51°07' E 001°20'6 6.0
2014-Oct-20 13:34N 51°07' E 001°29'1616.3
2014-Oct-20 12:34N 50°58' E 001°52'0 0.0
2014-Oct-20 11:34N 50°58' E 001°52'1716.9
2014-Oct-20 10:33N 51°04' E 001°26'5 5.3
2014-Oct-20 09:33N 51°07' E 001°20'1111.0
2014-Oct-20 08:34N 51°02' E 001°35'1110.7
2014-Oct-20 07:34N 50°58' E 001°51'4 4.5
2014-Oct-20 06:34N 50°58' E 001°44'1817.5
2014-Oct-20 05:33N 51°07' E 001°20'0 0.1
2014-Oct-20 04:33N 51°07' E 001°20'7 7.5
2014-Oct-20 03:33N 51°04' E 001°31'1413.8
2014-Oct-20 02:34N 50°58' E 001°51'1 0.7
2014-Oct-20 01:34N 50°58' E 001°52'8 8.4
2014-Oct-20 00:33N 50°59' E 001°38'1414.1
2014-Oct-19 23:33N 51°07' E 001°20'7 6.7
2014-Oct-19 22:33N 51°05' E 001°30'1515.1
2014-Oct-19 21:34N 50°58' E 001°51'5 4.6
2014-Oct-19 20:33N 50°58' E 001°44'1817.6
2014-Oct-19 19:34N 51°07' E 001°21'0 0.4
2014-Oct-19 18:33N 51°07' E 001°20'7 7.5
2014-Oct-19 17:34N 51°05' E 001°31'1414.2
2014-Oct-19 16:33N 50°58' E 001°51'2 2.5
2014-Oct-19 15:34N 50°58' E 001°47'1717.4
2014-Oct-19 14:34N 51°06' E 001°23'2 1.8
2014-Oct-19 13:33N 51°07' E 001°20'1717.2
2014-Oct-19 12:33N 50°59' E 001°44'5 4.7
2014-Oct-19 11:33N 50°58' E 001°51'1111.1
2014-Oct-19 10:33N 51°01' E 001°34'1110.9
2014-Oct-19 09:33N 51°07' E 001°20'10 9.8
2014-Oct-19 08:33N 51°04' E 001°34'1211.9
2014-Oct-19 07:34N 50°58' E 001°51'2 1.7
2014-Oct-19 06:33N 50°58' E 001°48'1818.4
2014-Oct-19 05:33N 51°07' E 001°22'2 1.5
2014-Oct-19 04:34N 51°07' E 001°20'2 1.7
2014-Oct-19 03:34N 51°07' E 001°23'1919.3
2014-Oct-19 02:33N 50°58' E 001°50'1 0.7
2014-Oct-19 01:33N 50°58' E 001°51'1313.2
2014-Oct-19 00:34N 51°03' E 001°32'9 8.6
2014-Oct-18 23:33N 51°07' E 001°20'8 8.2
2014-Oct-18 22:33N 51°08' E 001°33'1313.4
2014-Oct-18 21:34N 50°58' E 001°48'2 1.8
2014-Oct-18 20:33N 50°58' E 001°51'1414.1
2014-Oct-18 19:34N 51°02' E 001°30'8 8.0
2014-Oct-18 18:33N 51°07' E 001°20'8 7.7
2014-Oct-18 17:34N 51°03' E 001°31'1413.9
2014-Oct-18 16:33N 50°58' E 001°51'5 4.6
2014-Oct-18 15:33N 50°58' E 001°44'1817.6
2014-Oct-18 14:34N 51°07' E 001°20'4 3.7
2014-Oct-18 13:34N 51°07' E 001°26'1817.8
2014-Oct-18 12:33N 50°58' E 001°51'0 0.4
2014-Oct-18 11:34N 50°58' E 001°51'1616.2
2014-Oct-18 10:33N 51°05' E 001°28'5 5.5
2014-Oct-18 09:34N 51°07' E 001°20'1010.5
2014-Oct-18 08:34N 51°02' E 001°35'1111.4
2014-Oct-18 07:34N 50°58' E 001°51'5 5.0
2014-Oct-18 06:34N 50°58' E 001°43'1717.1
2014-Oct-18 05:33N 51°07' E 001°21'0 0.4
2014-Oct-18 04:33N 51°07' E 001°20'7 6.9
2014-Oct-18 03:34N 51°04' E 001°30'1414.4
2014-Oct-18 02:34N 50°58' E 001°51'0 0.3
2014-Oct-18 01:34N 50°58' E 001°51'10 9.7
2014-Oct-18 00:33N 51°00' E 001°36'1212.2
2014-Oct-17 23:33N 51°07' E 001°20'6 6.3
2014-Oct-17 22:34N 51°05' E 001°29'1414.3
2014-Oct-17 21:33N 50°58' E 001°49'1 0.8
2014-Oct-17 20:33N 50°58' E 001°51'1515.4
2014-Oct-17 19:34N 51°04' E 001°28'6 6.2
2014-Oct-17 18:34N 51°07' E 001°20'7 7.1
2014-Oct-17 17:33N 51°04' E 001°30'1414.4
2014-Oct-17 16:33N 50°58' E 001°51'1 1.4
2014-Oct-17 15:33N 50°58' E 001°49'1918.5
2014-Oct-17 14:33N 51°07' E 001°22'1 1.1
2014-Oct-17 13:33N 51°07' E 001°21'1918.7
2014-Oct-17 12:34N 50°58' E 001°47'3 2.8
2014-Oct-17 11:33N 50°58' E 001°51'1413.8
2014-Oct-17 10:34N 51°04' E 001°31'8 8.0
2014-Oct-17 09:33N 51°07' E 001°20'9 9.2
2014-Oct-17 08:33N 51°05' E 001°34'1312.9
2014-Oct-17 07:33N 50°58' E 001°51'5 5.2
2014-Oct-17 06:34N 50°58' E 001°43'1717.5
2014-Oct-17 05:33N 51°07' E 001°20'0 0.0
2014-Oct-17 04:33N 51°07' E 001°20'7 7.0
2014-Oct-17 03:33N 51°06' E 001°31'1514.7
2014-Oct-17 02:33N 50°58' E 001°51'0 0.0
2014-Oct-17 01:33N 50°58' E 001°51'10 9.6
2014-Oct-17 00:33N 50°59' E 001°36'1313.1
2014-Oct-16 23:33N 51°07' E 001°20'7 6.7
2014-Oct-16 22:34N 51°07' E 001°31'1514.9
2014-Oct-16 21:34N 50°58' E 001°50'1 1.0
2014-Oct-16 20:33N 50°58' E 001°51'1313.4
2014-Oct-16 19:34N 51°02' E 001°31'9 8.7
2014-Oct-16 18:33N 51°07' E 001°20'8 7.7
2014-Oct-16 17:33N 51°04' E 001°31'1413.9
2014-Oct-16 16:33N 50°58' E 001°51'2 2.5
2014-Oct-16 15:34N 50°58' E 001°47'1918.8
2014-Oct-16 14:34N 51°07' E 001°21'0 0.4
2014-Oct-16 13:34N 51°07' E 001°20'1818.1
2014-Oct-16 12:33N 50°58' E 001°45'4 3.9
2014-Oct-16 11:34N 50°58' E 001°51'1313.4
2014-Oct-16 10:33N 51°03' E 001°31'8 8.4
2014-Oct-16 09:34N 51°07' E 001°20'10 9.5
2014-Oct-16 08:34N 51°04' E 001°34'1212.3
2014-Oct-16 07:33N 50°58' E 001°51'3 3.0
2014-Oct-16 06:33N 50°58' E 001°47'1818.6
2014-Oct-16 05:33N 51°07' E 001°21'1 0.7
2014-Oct-16 04:33N 51°07' E 001°20'8 7.7
2014-Oct-16 03:34N 51°05' E 001°32'1413.9
2014-Oct-16 02:34N 50°58' E 001°51'0 0.1
2014-Oct-16 01:33N 50°58' E 001°51'8 8.3
2014-Oct-16 00:34N 50°60' E 001°38'1413.5
2014-Oct-15 23:33N 51°07' E 001°20'7 6.8
2014-Oct-15 22:33N 51°04' E 001°30'1514.6
2014-Oct-15 21:33N 50°58' E 001°51'  
Track history (hours):
 
Tides and Currents Weather Stations Pressure Air Temp Water Temp Dewpoint Dewpoint Depression Visibility Wind Speed Wind Dir Waves Ship Positions

Pride Of Kent

Operator: P & O Ferries

Last reported at 2014-Oct-25 21:33 UTC. Time now 2014-Oct-25 22:13 UTC.
Position N 50°58' E 001°49'.

Length 180 m; draft 6 m.

Type: Passenger vessel. MMSI: 232009000.

Date/timePositionNaut miles runAvg speedWind from/ knotsBaromVisibWave heightAir tempDewpointWater temp
2014-Oct-25 21:33N 50°58' E 001°49'1 1.0
2014-Oct-25 20:34N 50°58' E 001°51'1616.3
2014-Oct-25 19:33N 51°03' E 001°26'6 5.7
2014-Oct-25 18:33N 51°07' E 001°20'1616.0
2014-Oct-25 17:33N 50°59' E 001°42'6 6.3
2014-Oct-25 16:33N 50°58' E 001°52'10 9.5
2014-Oct-25 15:33N 50°60' E 001°37'13 8.8
2014-Oct-25 14:05N 51°07' E 001°20'612.2
2014-Oct-25 13:34N 51°05' E 001°30'1515.3
2014-Oct-25 12:33N 50°58' E 001°51'1 0.8
2014-Oct-25 11:33N 50°59' E 001°50'1413.8
2014-Oct-25 10:33N 51°03' E 001°30'7 5.7
2014-Oct-25 09:18N 51°07' E 001°20'1215.8
2014-Oct-25 08:34N 51°02' E 001°36'1010.1
2014-Oct-25 07:33N 50°58' E 001°51'5 4.7
2014-Oct-25 06:33N 50°58' E 001°44'18 8.7
2014-Oct-25 04:31N 51°07' E 001°20'6 6.0
2014-Oct-25 03:33N 51°06' E 001°29'1515.0
2014-Oct-25 02:33N 50°58' E 001°50'1 0.8
2014-Oct-25 01:33N 50°58' E 001°51'1111.5
2014-Oct-25 00:33N 51°00' E 001°33'11 8.5
2014-Oct-24 23:16N 51°07' E 001°20'1014.3
2014-Oct-24 22:33N 51°05' E 001°36'1212.2
2014-Oct-24 21:33N 50°58' E 001°51'7 7.3
2014-Oct-24 20:34N 50°58' E 001°40'14 6.9
2014-Oct-24 18:33N 51°07' E 001°23'1918.6
2014-Oct-24 17:33N 50°58' E 001°50'1 1.2
2014-Oct-24 16:33N 50°58' E 001°51'1616.4
2014-Oct-24 15:34N 51°05' E 001°27'5 4.8
2014-Oct-24 14:26N 51°07' E 001°20'1112.3
2014-Oct-24 13:33N 51°03' E 001°36'1111.3
2014-Oct-24 12:33N 50°58' E 001°52'0 0.3
2014-Oct-24 11:33N 50°58' E 001°51'1717.3
2014-Oct-24 10:33N 51°05' E 001°26'4 3.8
2014-Oct-24 09:26N 51°07' E 001°20'1415.8
2014-Oct-24 08:33N 51°01' E 001°39'8 7.7
2014-Oct-24 07:33N 50°58' E 001°51'1010.2
2014-Oct-24 06:33N 51°00' E 001°35'1212.1
2014-Oct-24 05:33N 51°07' E 001°20'4 3.8
2014-Oct-24 04:34N 51°07' E 001°26'1717.5
2014-Oct-24 03:33N 50°58' E 001°50'1 0.6
2014-Oct-24 02:33N 50°58' E 001°51'4 4.3
2014-Oct-24 01:34N 51°02' E 001°54'1716.7
2014-Oct-24 00:34N 51°04' E 002°20'1 1.5
2014-Oct-23 23:33N 51°03' E 002°22'0 0.1
2014-Oct-23 22:33N 51°03' E 002°22'0 0.0
2014-Oct-23 21:34N 51°03' E 002°22'0 0.0
2014-Oct-23 20:33N 51°03' E 002°22'0 0.0
2014-Oct-23 19:33N 51°03' E 002°22'0 0.0
2014-Oct-23 18:34N 51°03' E 002°22'0 0.0
2014-Oct-23 17:33N 51°03' E 002°22'0 0.0
2014-Oct-23 16:34N 51°03' E 002°22'0 0.0
2014-Oct-23 15:34N 51°03' E 002°22'0 0.0
2014-Oct-23 14:33N 51°03' E 002°22'0 0.0
2014-Oct-23 13:34N 51°03' E 002°22'0 0.0
2014-Oct-23 12:34N 51°03' E 002°22'0 0.0
2014-Oct-23 11:32N 51°03' E 002°22'0 0.0
2014-Oct-23 10:34N 51°03' E 002°22'0 0.0
2014-Oct-23 09:34N 51°03' E 002°22'0 0.0
2014-Oct-23 08:33N 51°03' E 002°22'0 0.0
2014-Oct-23 07:33N 51°03' E 002°22'0 0.0
2014-Oct-23 06:34N 51°03' E 002°22'0 0.0
2014-Oct-23 05:34N 51°03' E 002°22'0 0.0
2014-Oct-23 04:34N 51°03' E 002°22'0 0.0
2014-Oct-23 03:33N 51°03' E 002°22'0 0.0
2014-Oct-23 02:33N 51°03' E 002°22'0 0.0
2014-Oct-23 01:34N 51°03' E 002°22'0 0.0
2014-Oct-23 00:34N 51°03' E 002°22'0 0.0
2014-Oct-22 23:33N 51°03' E 002°22'0 0.0
2014-Oct-22 22:34N 51°03' E 002°22'0 0.0
2014-Oct-22 21:34N 51°03' E 002°22'0 0.0
2014-Oct-22 20:33N 51°03' E 002°22'0 0.0
2014-Oct-22 19:34N 51°03' E 002°22'0 0.0
2014-Oct-22 18:33N 51°03' E 002°22'0 0.0
2014-Oct-22 17:34N 51°03' E 002°22'0 0.0
2014-Oct-22 16:34N 51°03' E 002°22'0 0.0
2014-Oct-22 15:33N 51°03' E 002°22'0 0.0
2014-Oct-22 14:34N 51°03' E 002°22'0 0.0
2014-Oct-22 13:34N 51°03' E 002°22'0 0.0
2014-Oct-22 12:33N 51°03' E 002°22'0 0.0
2014-Oct-22 11:34N 51°03' E 002°22'0 0.0
2014-Oct-22 10:34N 51°03' E 002°22'0 0.0
2014-Oct-22 09:33N 51°03' E 002°22'0 0.0
2014-Oct-22 08:34N 51°03' E 002°22'0 0.0
2014-Oct-22 07:34N 51°03' E 002°22'0 0.0
2014-Oct-22 06:34N 51°03' E 002°22'0 0.1
2014-Oct-22 05:33N 51°03' E 002°22'0 0.1
2014-Oct-22 04:33N 51°03' E 002°22'0 0.0
2014-Oct-22 03:34N 51°03' E 002°22'0 0.0
2014-Oct-22 02:33N 51°03' E 002°22'0 0.0
2014-Oct-22 01:33N 51°03' E 002°22'0 0.0
2014-Oct-22 00:33N 51°03' E 002°22'0 0.0
2014-Oct-21 23:34N 51°03' E 002°22'0 0.0
2014-Oct-21 22:33N 51°03' E 002°22'0 0.0
2014-Oct-21 21:33N 51°03' E 002°22'0 0.0
2014-Oct-21 20:33N 51°03' E 002°22'0 0.0
2014-Oct-21 19:33N 51°03' E 002°22'0 0.0
2014-Oct-21 18:34N 51°03' E 002°22'0 0.0
2014-Oct-21 17:33N 51°03' E 002°22'0 0.0
2014-Oct-21 16:34N 51°03' E 002°22'1 0.8
2014-Oct-21 15:34N 51°03' E 002°21'1110.8
2014-Oct-21 14:34N 51°03' E 002°04'1312.7
2014-Oct-21 13:33N 50°58' E 001°45'4 4.1
2014-Oct-21 12:34N 50°58' E 001°51'6 5.6
2014-Oct-21 11:33N 50°59' E 001°42'1716.6
2014-Oct-21 10:33N 51°07' E 001°20'1 0.8
2014-Oct-21 09:33N 51°07' E 001°21'1110.7
2014-Oct-21 08:34N 51°03' E 001°37'1010.5
2014-Oct-21 07:33N 50°58' E 001°52'3 3.2
2014-Oct-21 06:33N 50°58' E 001°47'1818.2
2014-Oct-21 05:33N 51°07' E 001°21'1 1.0
2014-Oct-21 04:33N 51°07' E 001°20'9 8.6
2014-Oct-21 03:33N 51°04' E 001°33'1313.0
2014-Oct-21 02:33N 50°58' E 001°51'0 0.0
2014-Oct-21 01:33N 50°58' E 001°51'1616.4
2014-Oct-21 00:33N 51°04' E 001°27'5 5.2
2014-Oct-20 23:33N 51°07' E 001°20'1111.4
2014-Oct-20 22:33N 51°03' E 001°37'1010.5
2014-Oct-20 21:33N 50°58' E 001°51'7 7.0
2014-Oct-20 20:33N 50°59' E 001°40'1515.4
2014-Oct-20 19:33N 51°07' E 001°20'0 0.5
2014-Oct-20 18:33N 51°07' E 001°21'1717.6
2014-Oct-20 17:33N 50°58' E 001°45'4 4.0
2014-Oct-20 16:33N 50°58' E 001°51'1211.9
2014-Oct-20 15:33N 51°01' E 001°33'1010.1
2014-Oct-20 14:33N 51°07' E 001°20'6 6.0
2014-Oct-20 13:34N 51°07' E 001°29'1616.3
2014-Oct-20 12:34N 50°58' E 001°52'0 0.0
2014-Oct-20 11:34N 50°58' E 001°52'1716.9
2014-Oct-20 10:33N 51°04' E 001°26'5 5.3
2014-Oct-20 09:33N 51°07' E 001°20'1111.0
2014-Oct-20 08:34N 51°02' E 001°35'1110.7
2014-Oct-20 07:34N 50°58' E 001°51'4 4.5
2014-Oct-20 06:34N 50°58' E 001°44'1817.5
2014-Oct-20 05:33N 51°07' E 001°20'0 0.1
2014-Oct-20 04:33N 51°07' E 001°20'7 7.5
2014-Oct-20 03:33N 51°04' E 001°31'1413.8
2014-Oct-20 02:34N 50°58' E 001°51'1 0.7
2014-Oct-20 01:34N 50°58' E 001°52'8 8.4
2014-Oct-20 00:33N 50°59' E 001°38'1414.1
2014-Oct-19 23:33N 51°07' E 001°20'7 6.7
2014-Oct-19 22:33N 51°05' E 001°30'1515.1
2014-Oct-19 21:34N 50°58' E 001°51'5 4.6
2014-Oct-19 20:33N 50°58' E 001°44'1817.6
2014-Oct-19 19:34N 51°07' E 001°21'0 0.4
2014-Oct-19 18:33N 51°07' E 001°20'7 7.5
2014-Oct-19 17:34N 51°05' E 001°31'1414.2
2014-Oct-19 16:33N 50°58' E 001°51'2 2.5
2014-Oct-19 15:34N 50°58' E 001°47'1717.4
2014-Oct-19 14:34N 51°06' E 001°23'2 1.8
2014-Oct-19 13:33N 51°07' E 001°20'1717.2
2014-Oct-19 12:33N 50°59' E 001°44'5 4.7
2014-Oct-19 11:33N 50°58' E 001°51'1111.1
2014-Oct-19 10:33N 51°01' E 001°34'1110.9
2014-Oct-19 09:33N 51°07' E 001°20'10 9.8
2014-Oct-19 08:33N 51°04' E 001°34'1211.9
2014-Oct-19 07:34N 50°58' E 001°51'2 1.7
2014-Oct-19 06:33N 50°58' E 001°48'1818.4
2014-Oct-19 05:33N 51°07' E 001°22'2 1.5
2014-Oct-19 04:34N 51°07' E 001°20'2 1.7
2014-Oct-19 03:34N 51°07' E 001°23'1919.3
2014-Oct-19 02:33N 50°58' E 001°50'1 0.7
2014-Oct-19 01:33N 50°58' E 001°51'1313.2
2014-Oct-19 00:34N 51°03' E 001°32'9 8.6
2014-Oct-18 23:33N 51°07' E 001°20'8 8.2
2014-Oct-18 22:33N 51°08' E 001°33'1313.4
2014-Oct-18 21:34N 50°58' E 001°48'2 1.8
2014-Oct-18 20:33N 50°58' E 001°51'1414.1
2014-Oct-18 19:34N 51°02' E 001°30'8 8.0
2014-Oct-18 18:33N 51°07' E 001°20'8 7.7
2014-Oct-18 17:34N 51°03' E 001°31'1413.9
2014-Oct-18 16:33N 50°58' E 001°51'5 4.6
2014-Oct-18 15:33N 50°58' E 001°44'1817.6
2014-Oct-18 14:34N 51°07' E 001°20'4 3.7
2014-Oct-18 13:34N 51°07' E 001°26'1817.8
2014-Oct-18 12:33N 50°58' E 001°51'0 0.4
2014-Oct-18 11:34N 50°58' E 001°51'1616.2
2014-Oct-18 10:33N 51°05' E 001°28'5 5.5
2014-Oct-18 09:34N 51°07' E 001°20'1010.5
2014-Oct-18 08:34N 51°02' E 001°35'1111.4
2014-Oct-18 07:34N 50°58' E 001°51'5 5.0
2014-Oct-18 06:34N 50°58' E 001°43'1717.1
2014-Oct-18 05:33N 51°07' E 001°21'0 0.4
2014-Oct-18 04:33N 51°07' E 001°20'7 6.9
2014-Oct-18 03:34N 51°04' E 001°30'1414.4
2014-Oct-18 02:34N 50°58' E 001°51'0 0.3
2014-Oct-18 01:34N 50°58' E 001°51'10 9.7
2014-Oct-18 00:33N 51°00' E 001°36'1212.2
2014-Oct-17 23:33N 51°07' E 001°20'6 6.3
2014-Oct-17 22:34N 51°05' E 001°29'1414.3
2014-Oct-17 21:33N 50°58' E 001°49'1 0.8
2014-Oct-17 20:33N 50°58' E 001°51'1515.4
2014-Oct-17 19:34N 51°04' E 001°28'6 6.2
2014-Oct-17 18:34N 51°07' E 001°20'7 7.1
2014-Oct-17 17:33N 51°04' E 001°30'1414.4
2014-Oct-17 16:33N 50°58' E 001°51'1 1.4
2014-Oct-17 15:33N 50°58' E 001°49'1918.5
2014-Oct-17 14:33N 51°07' E 001°22'1 1.1
2014-Oct-17 13:33N 51°07' E 001°21'1918.7
2014-Oct-17 12:34N 50°58' E 001°47'3 2.8
2014-Oct-17 11:33N 50°58' E 001°51'1413.8
2014-Oct-17 10:34N 51°04' E 001°31'8 8.0
2014-Oct-17 09:33N 51°07' E 001°20'9 9.2
2014-Oct-17 08:33N 51°05' E 001°34'1312.9
2014-Oct-17 07:33N 50°58' E 001°51'5 5.2
2014-Oct-17 06:34N 50°58' E 001°43'1717.5
2014-Oct-17 05:33N 51°07' E 001°20'0 0.0
2014-Oct-17 04:33N 51°07' E 001°20'7 7.0
2014-Oct-17 03:33N 51°06' E 001°31'1514.7
2014-Oct-17 02:33N 50°58' E 001°51'0 0.0
2014-Oct-17 01:33N 50°58' E 001°51'10 9.6
2014-Oct-17 00:33N 50°59' E 001°36'1313.1
2014-Oct-16 23:33N 51°07' E 001°20'7 6.7
2014-Oct-16 22:34N 51°07' E 001°31'1514.9
2014-Oct-16 21:34N 50°58' E 001°50'1 1.0
2014-Oct-16 20:33N 50°58' E 001°51'1313.4
2014-Oct-16 19:34N 51°02' E 001°31'9 8.7
2014-Oct-16 18:33N 51°07' E 001°20'8 7.7
2014-Oct-16 17:33N 51°04' E 001°31'1413.9
2014-Oct-16 16:33N 50°58' E 001°51'2 2.5
2014-Oct-16 15:34N 50°58' E 001°47'1918.8
2014-Oct-16 14:34N 51°07' E 001°21'0 0.4
2014-Oct-16 13:34N 51°07' E 001°20'1818.1
2014-Oct-16 12:33N 50°58' E 001°45'4 3.9
2014-Oct-16 11:34N 50°58' E 001°51'1313.4
2014-Oct-16 10:33N 51°03' E 001°31'8 8.4
2014-Oct-16 09:34N 51°07' E 001°20'10 9.5
2014-Oct-16 08:34N 51°04' E 001°34'1212.3
2014-Oct-16 07:33N 50°58' E 001°51'3 3.0
2014-Oct-16 06:33N 50°58' E 001°47'1818.6
2014-Oct-16 05:33N 51°07' E 001°21'1 0.7
2014-Oct-16 04:33N 51°07' E 001°20'8 7.7
2014-Oct-16 03:34N 51°05' E 001°32'1413.9
2014-Oct-16 02:34N 50°58' E 001°51'0 0.1
2014-Oct-16 01:33N 50°58' E 001°51'8 8.3
2014-Oct-16 00:34N 50°60' E 001°38'1413.5
2014-Oct-15 23:33N 51°07' E 001°20'7 6.8
2014-Oct-15 22:33N 51°04' E 001°30'1514.6
2014-Oct-15 21:33N 50°58' E 001°51'  

Dump ship's entire track history